Time;durP1;ratioP1;P1;durP2;ratioP2;P2;SDS_P1;SDS_P2;PMS_P1;PMS_P2;Temp;Humidity;BMP_temperature;BMP_pressure;BME280_temperature;BME280_humidity;BME280_pressure;Samples;Min_cycle;Max_cycle;Signal;HPM_P1;HPM_P2
2023/09/06 00:02:09;;;;;;;10.50;5.20;;;;;;;;;;4976603;28;20128;-86
2023/09/06 00:04:37;;;;;;;8.48;5.20;;;;;;;;;;4976735;28;20479;-87
2023/09/06 00:07:05;;;;;;;8.82;5.47;;;;;;;;;;4993662;28;20462;-86
2023/09/06 00:09:33;;;;;;;5.90;5.30;;;;;;;;;;4976523;28;20054;-86
2023/09/06 00:12:00;;;;;;;5.88;5.15;;;;;;;;;;4976337;28;20141;-86
2023/09/06 00:14:29;;;;;;;5.13;4.63;;;;;;;;;;4993405;28;20078;-86
2023/09/06 00:16:56;;;;;;;8.48;5.53;;;;;;;;;;4992346;28;20141;-86
2023/09/06 00:19:24;;;;;;;5.57;4.75;;;;;;;;;;4976303;28;20046;-86
2023/09/06 00:21:51;;;;;;;7.45;4.47;;;;;;;;;;4991663;28;20058;-86
2023/09/06 00:24:19;;;;;;;10.73;5.57;;;;;;;;;;4976886;28;20054;-86
2023/09/06 00:26:46;;;;;;;10.57;5.80;;;;;;;;;;4980038;28;20140;-84
2023/09/06 00:29:14;;;;;;;6.72;5.20;;;;;;;;;;4979809;28;20140;-85
2023/09/06 00:31:41;;;;;;;7.20;5.13;;;;;;;;;;4980127;28;20046;-86
2023/09/06 00:34:08;;;;;;;10.70;5.40;;;;;;;;;;4997452;28;20082;-86
2023/09/06 00:36:36;;;;;;;6.15;5.55;;;;;;;;;;4979855;28;20081;-86
2023/09/06 00:39:05;;;;;;;7.93;5.55;;;;;;;;;;4980287;28;20054;-86
2023/09/06 00:41:33;;;;;;;7.82;6.20;;;;;;;;;;4979695;28;20050;-86
2023/09/06 00:44:00;;;;;;;11.35;6.72;;;;;;;;;;4979759;28;20055;-86
2023/09/06 00:46:28;;;;;;;8.82;6.53;;;;;;;;;;4996973;28;20052;-86
2023/09/06 00:48:55;;;;;;;7.30;6.43;;;;;;;;;;4979398;28;20062;-85
2023/09/06 00:51:24;;;;;;;7.10;6.05;;;;;;;;;;4977796;28;20069;-86
2023/09/06 00:53:52;;;;;;;8.32;5.93;;;;;;;;;;4978507;28;20050;-85
2023/09/06 00:56:20;;;;;;;7.85;5.95;;;;;;;;;;4996432;28;20194;-86
2023/09/06 00:58:47;;;;;;;7.50;6.13;;;;;;;;;;4996562;28;20077;-85
2023/09/06 01:01:16;;;;;;;7.32;6.63;;;;;;;;;;4978754;28;20396;-86
2023/09/06 01:03:43;;;;;;;7.05;6.18;;;;;;;;;;4979306;28;20049;-86
2023/09/06 01:06:17;;;;;;;7.75;6.95;;;;;;;;;;4996509;28;20056;-86
2023/09/06 01:08:49;;;;;;;10.15;6.85;;;;;;;;;;4979469;28;20050;-85
2023/09/06 01:11:23;;;;;;;8.90;6.85;;;;;;;;;;4983973;28;20561;-86
2023/09/06 01:13:52;;;;;;;10.07;6.72;;;;;;;;;;5007092;28;20046;-86
2023/09/06 01:16:31;;;;;;;12.48;6.25;;;;;;;;;;4981324;28;20050;-85
2023/09/06 01:18:59;;;;;;;9.77;7.03;;;;;;;;;;4997295;28;20050;-86
2023/09/06 01:21:31;;;;;;;8.60;6.78;;;;;;;;;;4978754;28;20057;-85
2023/09/06 01:24:01;;;;;;;7.35;6.13;;;;;;;;;;4979298;28;20487;-86
2023/09/06 01:26:28;;;;;;;6.30;5.72;;;;;;;;;;4978729;28;20104;-86
2023/09/06 01:28:55;;;;;;;8.27;6.22;;;;;;;;;;4996272;28;20459;-86
2023/09/06 01:31:23;;;;;;;9.00;6.53;;;;;;;;;;4978707;28;20050;-86
2023/09/06 01:33:50;;;;;;;9.50;6.32;;;;;;;;;;4979158;28;20218;-86
2023/09/06 01:36:18;;;;;;;6.90;6.18;;;;;;;;;;4978035;28;20047;-86
2023/09/06 01:38:45;;;;;;;13.35;6.38;;;;;;;;;;4978875;28;20050;-86
2023/09/06 01:41:12;;;;;;;7.03;6.32;;;;;;;;;;4996006;28;20054;-86
2023/09/06 01:43:40;;;;;;;8.23;6.32;;;;;;;;;;4978563;28;20120;-86
2023/09/06 01:46:07;;;;;;;8.35;6.90;;;;;;;;;;4996093;28;20058;-86
2023/09/06 01:48:36;;;;;;;7.28;6.57;;;;;;;;;;4978893;28;20070;-86
2023/09/06 01:51:04;;;;;;;7.78;6.97;;;;;;;;;;4978353;28;20046;-86
2023/09/06 01:53:31;;;;;;;9.65;7.03;;;;;;;;;;4978284;28;20104;-86
2023/09/06 01:55:59;;;;;;;9.32;7.22;;;;;;;;;;4978496;28;20502;-86
2023/09/06 01:58:26;;;;;;;7.38;6.60;;;;;;;;;;4995780;28;20092;-86
2023/09/06 02:00:54;;;;;;;7.72;6.70;;;;;;;;;;4995697;28;20562;-86
2023/09/06 02:03:21;;;;;;;8.60;6.93;;;;;;;;;;4978420;28;20470;-86
2023/09/06 02:05:48;;;;;;;7.68;6.97;;;;;;;;;;4995195;28;20403;-86
2023/09/06 02:08:16;;;;;;;9.95;8.10;;;;;;;;;;4978142;28;20058;-86
2023/09/06 02:10:44;;;;;;;9.30;8.43;;;;;;;;;;4977689;28;20050;-85
2023/09/06 02:13:11;;;;;;;8.15;7.43;;;;;;;;;;4977867;28;20046;-86
2023/09/06 02:15:40;;;;;;;7.75;7.05;;;;;;;;;;4978177;28;20054;-87
2023/09/06 02:18:07;;;;;;;7.47;6.78;;;;;;;;;;4995383;28;20081;-86
2023/09/06 02:20:35;;;;;;;7.40;6.70;;;;;;;;;;4978199;28;20050;-86
2023/09/06 02:23:03;;;;;;;8.90;7.88;;;;;;;;;;4977962;28;20121;-86
2023/09/06 02:25:31;;;;;;;12.40;7.75;;;;;;;;;;4994920;28;20534;-86
2023/09/06 02:28:03;;;;;;;12.65;8.25;;;;;;;;;;4977855;28;20082;-86
2023/09/06 02:30:37;;;;;;;11.70;8.25;;;;;;;;;;4994641;28;20132;-86
2023/09/06 02:33:08;;;;;;;11.70;7.55;;;;;;;;;;4977842;28;20049;-86
2023/09/06 02:35:35;;;;;;;10.82;7.80;;;;;;;;;;4977621;28;20207;-86
2023/09/06 02:38:02;;;;;;;9.00;8.10;;;;;;;;;;4977651;28;20144;-86
2023/09/06 02:40:30;;;;;;;11.02;7.85;;;;;;;;;;4977508;28;20054;-86
2023/09/06 02:42:57;;;;;;;8.65;6.85;;;;;;;;;;4994415;28;20054;-85
2023/09/06 02:45:36;;;;;;;11.70;7.70;;;;;;;;;;4994671;28;20483;-87
2023/09/06 02:48:11;;;;;;;8.85;7.95;;;;;;;;;;4977176;28;20072;-86
2023/09/06 02:50:40;;;;;;;12.48;8.35;;;;;;;;;;4993970;28;20078;-86
2023/09/06 02:53:19;;;;;;;11.20;8.45;;;;;;;;;;4977235;28;20054;-86
2023/09/06 02:55:51;;;;;;;10.38;8.68;;;;;;;;;;4977462;28;20050;-86
2023/09/06 02:58:22;;;;;;;9.45;8.55;;;;;;;;;;4977295;28;20527;-86
2023/09/06 03:00:55;;;;;;;9.17;8.13;;;;;;;;;;4977411;28;20053;-86
2023/09/06 03:03:23;;;;;;;11.30;8.30;;;;;;;;;;4977168;28;20054;-86
2023/09/06 03:05:53;;;;;;;10.63;7.88;;;;;;;;;;4976845;28;20669;-86
2023/09/06 03:08:20;;;;;;;8.80;7.88;;;;;;;;;;4977221;28;20042;-87
2023/09/06 03:10:47;;;;;;;8.20;7.40;;;;;;;;;;4976810;28;20097;-86
2023/09/06 03:13:15;;;;;;;9.00;7.45;;;;;;;;;;4976671;28;20074;-86
2023/09/06 03:15:43;;;;;;;8.48;7.68;;;;;;;;;;4994274;28;20066;-86
2023/09/06 03:18:11;;;;;;;13.80;7.57;;;;;;;;;;4977247;28;20050;-87
2023/09/06 03:20:45;;;;;;;9.10;8.02;;;;;;;;;;4977090;28;20050;-87
2023/09/06 03:23:19;;;;;;;12.57;9.55;;;;;;;;;;4977078;28;20054;-86
2023/09/06 03:25:47;;;;;;;14.95;8.07;;;;;;;;;;4993831;28;20145;-87
2023/09/06 03:28:15;;;;;;;10.27;8.02;;;;;;;;;;4976825;28;20050;-87
2023/09/06 03:30:42;;;;;;;12.02;9.20;;;;;;;;;;4977104;28;20438;-86
2023/09/06 03:33:10;;;;;;;10.80;9.20;;;;;;;;;;4976803;28;20384;-86
2023/09/06 03:35:37;;;;;;;9.85;8.32;;;;;;;;;;4976617;28;20418;-86
2023/09/06 03:38:10;;;;;;;9.80;8.82;;;;;;;;;;4993901;28;20105;-86
2023/09/06 03:40:38;;;;;;;;;;;;;;;;;;4976995;28;20065;-87
2023/09/06 03:43:05;;;;;;;13.52;9.32;;;;;;;;;;4976523;28;19921;-86
2023/09/06 03:45:34;;;;;;;12.25;8.55;;;;;;;;;;4976221;28;20589;-86
2023/09/06 03:48:01;;;;;;;10.38;8.60;;;;;;;;;;4976719;28;20046;-86
2023/09/06 03:50:29;;;;;;;8.35;7.57;;;;;;;;;;4993772;28;20084;-86
2023/09/06 03:52:57;;;;;;;10.95;9.13;;;;;;;;;;4994228;28;20113;-86
2023/09/06 03:55:24;;;;;;;9.63;8.80;;;;;;;;;;4977660;28;20526;-87
2023/09/06 03:57:52;;;;;;;13.45;9.10;;;;;;;;;;5008241;28;20054;-86
2023/09/06 04:00:31;;;;;;;10.68;9.57;;;;;;;;;;4995024;28;20079;-86
2023/09/06 04:02:58;;;;;;;12.10;10.18;;;;;;;;;;4983260;28;20046;-87
2023/09/06 04:05:26;;;;;;;10.93;9.82;;;;;;;;;;4983224;28;20050;-87
2023/09/06 04:07:58;;;;;;;16.83;10.82;;;;;;;;;;4983113;28;20388;-86
2023/09/06 04:10:36;;;;;;;14.60;10.20;;;;;;;;;;4982901;28;20050;-86
2023/09/06 04:13:04;;;;;;;12.77;9.80;;;;;;;;;;4999268;28;20054;-86
2023/09/06 04:15:34;;;;;;;10.65;9.57;;;;;;;;;;5000203;28;20058;-86
2023/09/06 04:18:03;;;;;;;10.80;9.68;;;;;;;;;;4999953;28;20133;-85
2023/09/06 04:20:32;;;;;;;14.65;9.75;;;;;;;;;;4982786;28;20053;-87
2023/09/06 04:22:59;;;;;;;10.93;9.73;;;;;;;;;;4983165;28;20447;-87
2023/09/06 04:25:27;;;;;;;12.98;9.25;;;;;;;;;;4983086;28;20043;-87
2023/09/06 04:27:55;;;;;;;12.13;9.30;;;;;;;;;;4982914;28;20078;-86
2023/09/06 04:30:23;;;;;;;9.85;8.93;;;;;;;;;;4982665;28;20073;-86
2023/09/06 04:32:51;;;;;;;10.57;9.48;;;;;;;;;;4982992;28;20345;-87
2023/09/06 04:35:19;;;;;;;12.35;9.55;;;;;;;;;;4983136;28;20078;-87
2023/09/06 04:37:46;;;;;;;10.98;9.75;;;;;;;;;;4983130;28;20050;-87
2023/09/06 04:40:14;;;;;;;10.25;8.93;;;;;;;;;;4983200;28;20084;-87
2023/09/06 04:42:41;;;;;;;12.43;9.30;;;;;;;;;;4982593;28;20062;-87
2023/09/06 04:45:10;;;;;;;14.52;9.68;;;;;;;;;;4982877;28;20081;-86
2023/09/06 04:47:43;;;;;;;15.38;10.02;;;;;;;;;;4983135;28;20076;-85
2023/09/06 04:50:11;;;;;;;10.35;9.15;;;;;;;;;;4982407;28;20061;-87
2023/09/06 04:52:46;;;;;;;13.95;10.20;;;;;;;;;;4982422;28;20550;-87
2023/09/06 04:55:14;;;;;;;13.68;10.00;;;;;;;;;;4982371;28;20461;-86
2023/09/06 04:57:42;;;;;;;15.10;11.10;;;;;;;;;;4982721;28;20047;-87
2023/09/06 05:02:47;;;;;;;17.42;12.50;;;;;;;;;;4999639;28;20058;-87
2023/09/06 05:05:15;;;;;;;16.70;12.32;;;;;;;;;;4982486;28;20062;-86
2023/09/06 05:07:44;;;;;;;12.55;11.13;;;;;;;;;;4982267;28;20050;-86
2023/09/06 05:10:12;;;;;;;13.73;10.98;;;;;;;;;;4999117;28;20046;-86
2023/09/06 05:12:40;;;;;;;16.83;12.05;;;;;;;;;;4979257;28;20105;-86
2023/09/06 05:15:08;;;;;;;11.57;10.38;;;;;;;;;;4979258;28;20047;-86
2023/09/06 05:17:36;;;;;;;13.10;11.32;;;;;;;;;;4979295;28;20104;-86
2023/09/06 05:20:22;;;;;;;20.80;12.23;;;;;;;;;;4979221;28;20077;-86
2023/09/06 05:22:49;;;;;;;12.20;10.45;;;;;;;;;;4996054;28;20073;-86
2023/09/06 05:25:16;;;;;;;15.27;11.18;;;;;;;;;;4996427;28;20417;-87
2023/09/06 05:27:44;;;;;;;15.07;11.02;;;;;;;;;;4996085;28;20538;-86
2023/09/06 05:30:12;;;;;;;17.63;12.45;;;;;;;;;;4978585;28;20097;-86
2023/09/06 05:32:39;;;;;;;24.65;13.30;;;;;;;;;;4996193;28;20046;-86
2023/09/06 05:35:06;;;;;;;22.27;16.55;;;;;;;;;;4979088;28;20413;-86
2023/09/06 05:37:34;;;;;;;28.52;19.42;;;;;;;;;;4978622;28;20085;-86
2023/09/06 05:40:04;;;;;;;29.42;21.13;;;;;;;;;;4979079;28;20046;-86
2023/09/06 05:42:32;;;;;;;31.77;20.15;;;;;;;;;;4978477;28;20073;-86
2023/09/06 05:44:59;;;;;;;33.25;21.35;;;;;;;;;;4994493;28;20511;-86
2023/09/06 05:47:26;;;;;;;38.40;22.08;;;;;;;;;;4995653;28;20054;-86
2023/09/06 05:49:57;;;;;;;37.60;21.42;;;;;;;;;;4986454;28;20048;-86
2023/09/06 05:52:28;;;;;;;32.25;20.73;;;;;;;;;;4970532;28;20055;-85
2023/09/06 05:54:55;;;;;;;28.40;14.32;;;;;;;;;;4967297;28;20074;-86
2023/09/06 05:57:23;;;;;;;13.50;12.20;;;;;;;;;;4986035;28;20047;-85
2023/09/06 05:59:50;;;;;;;9.73;7.65;;;;;;;;;;4967273;28;20054;-85
2023/09/06 06:02:18;;;;;;;5.95;5.32;;;;;;;;;;4966471;28;20047;-85
2023/09/06 06:04:45;;;;;;;9.23;4.78;;;;;;;;;;4988205;28;20042;-85
2023/09/06 06:07:13;;;;;;;8.27;4.50;;;;;;;;;;4995485;28;20104;-86
2023/09/06 06:09:43;;;;;;;4.20;3.75;;;;;;;;;;4971615;28;20050;-86
2023/09/06 06:12:11;;;;;;;5.18;3.70;;;;;;;;;;4964960;28;20403;-85
2023/09/06 06:14:38;;;;;;;6.03;4.03;;;;;;;;;;4985454;28;20058;-86
2023/09/06 06:17:06;;;;;;;7.68;4.30;;;;;;;;;;4986670;28;20511;-85
2023/09/06 06:19:33;;;;;;;15.88;4.18;;;;;;;;;;4984560;28;20062;-85
2023/09/06 06:22:02;;;;;;;5.32;3.95;;;;;;;;;;4966590;28;20051;-85
2023/09/06 06:24:29;;;;;;;6.30;4.30;;;;;;;;;;4975608;28;20078;-85
2023/09/06 06:26:58;;;;;;;5.90;4.20;;;;;;;;;;4958430;28;20055;-86
2023/09/06 06:29:25;;;;;;;4.30;3.90;;;;;;;;;;4963282;28;20061;-84
2023/09/06 06:31:53;;;;;;;8.43;4.18;;;;;;;;;;4971932;28;20059;-85
2023/09/06 06:34:20;;;;;;;4.35;4.00;;;;;;;;;;4971247;28;20124;-86
2023/09/06 06:36:48;;;;;;;4.60;4.20;;;;;;;;;;4976512;28;20046;-86
2023/09/06 06:39:15;;;;;;;4.10;3.80;;;;;;;;;;4963410;28;20043;-84
2023/09/06 06:41:43;;;;;;;6.28;4.25;;;;;;;;;;4969176;28;20054;-85
2023/09/06 06:44:10;;;;;;;5.20;4.70;;;;;;;;;;4982955;28;20046;-85
2023/09/06 06:46:38;;;;;;;7.35;3.85;;;;;;;;;;4982909;28;20082;-84
2023/09/06 06:49:07;;;;;;;3.95;3.65;;;;;;;;;;4977857;28;20133;-85
2023/09/06 06:51:36;;;;;;;10.05;4.13;;;;;;;;;;4975650;28;20053;-84
2023/09/06 06:54:06;;;;;;;6.20;4.32;;;;;;;;;;4976408;28;20057;-85
2023/09/06 06:56:34;;;;;;;10.25;4.60;;;;;;;;;;4976381;28;20066;-84
2023/09/06 06:59:02;;;;;;;5.90;4.10;;;;;;;;;;4977365;28;20073;-85
2023/09/06 07:01:31;;;;;;;5.35;4.20;;;;;;;;;;4977293;28;20058;-86
2023/09/06 07:03:58;;;;;;;5.32;3.85;;;;;;;;;;4977387;28;20050;-86
2023/09/06 07:06:26;;;;;;;4.60;3.88;;;;;;;;;;4994058;28;20109;-85
2023/09/06 07:08:54;;;;;;;4.07;3.75;;;;;;;;;;4976839;28;20046;-85
2023/09/06 07:11:22;;;;;;;10.55;3.97;;;;;;;;;;4976891;28;20435;-85
2023/09/06 07:13:50;;;;;;;3.70;3.47;;;;;;;;;;4976747;28;20384;-85
2023/09/06 07:16:19;;;;;;;5.93;3.67;;;;;;;;;;4993627;28;20410;-84
2023/09/06 07:18:47;;;;;;;4.10;3.75;;;;;;;;;;4976390;28;20050;-85
2023/09/06 07:21:15;;;;;;;6.03;3.80;;;;;;;;;;4993101;28;20050;-85
2023/09/06 07:23:43;;;;;;;4.93;3.72;;;;;;;;;;4993609;28;20065;-85
2023/09/06 07:26:10;;;;;;;4.63;4.07;;;;;;;;;;4976447;28;20423;-85
2023/09/06 07:28:39;;;;;;;5.13;3.92;;;;;;;;;;4976404;28;20462;-85
2023/09/06 07:31:07;;;;;;;3.97;3.45;;;;;;;;;;4976192;28;20489;-85
2023/09/06 07:33:34;;;;;;;3.55;3.22;;;;;;;;;;4975608;28;20509;-85
2023/09/06 07:36:02;;;;;;;6.32;4.00;;;;;;;;;;4975691;28;20078;-86
2023/09/06 07:38:29;;;;;;;3.78;3.45;;;;;;;;;;4976013;28;20479;-86
2023/09/06 07:41:00;;;;;;;15.32;4.47;;;;;;;;;;4993423;28;20673;-85
2023/09/06 07:43:28;;;;;;;19.00;4.07;;;;;;;;;;4992783;28;20054;-86
2023/09/06 07:45:59;;;;;;;14.50;4.53;;;;;;;;;;4976153;28;20077;-86
2023/09/06 07:48:28;;;;;;;17.20;3.95;;;;;;;;;;4993291;28;20529;-87
2023/09/06 07:50:57;;;;;;;5.38;3.00;;;;;;;;;;4976447;28;20521;-86
2023/09/06 07:53:25;;;;;;;16.10;4.45;;;;;;;;;;4976162;28;20050;-86
2023/09/06 07:55:53;;;;;;;23.73;5.15;;;;;;;;;;4976025;28;20116;-87
2023/09/06 07:58:21;;;;;;;26.48;5.15;;;;;;;;;;4992921;28;20046;-87
2023/09/06 08:00:49;;;;;;;22.75;4.72;;;;;;;;;;4993113;28;20120;-85
2023/09/06 08:03:28;;;;;;;28.45;5.97;;;;;;;;;;4977698;28;20054;-86
2023/09/06 08:05:57;;;;;;;153.48;14.70;;;;;;;;;;4993100;28;20073;-86
2023/09/06 08:08:24;;;;;;;66.55;9.30;;;;;;;;;;4976057;28;20046;-86
2023/09/06 08:10:51;;;;;;;27.33;5.53;;;;;;;;;;4992970;28;20086;-87
2023/09/06 08:13:19;;;;;;;28.13;5.45;;;;;;;;;;4975533;28;20053;-86
2023/09/06 08:15:46;;;;;;;31.13;5.35;;;;;;;;;;4992723;28;20455;-87
2023/09/06 08:18:14;;;;;;;24.98;5.03;;;;;;;;;;4975968;28;20073;-87
2023/09/06 08:20:41;;;;;;;28.23;5.78;;;;;;;;;;4976362;28;20054;-88
2023/09/06 08:23:08;;;;;;;11.93;3.60;;;;;;;;;;4975939;28;20054;-86
2023/09/06 08:25:35;;;;;;;11.30;3.47;;;;;;;;;;4992782;28;20054;-86
2023/09/06 08:28:03;;;;;;;11.20;3.25;;;;;;;;;;4975653;28;20109;-87
2023/09/06 08:30:30;;;;;;;11.63;3.00;;;;;;;;;;4975765;28;20042;-87
2023/09/06 08:32:58;;;;;;;11.45;3.15;;;;;;;;;;4975639;28;20133;-84
2023/09/06 08:35:27;;;;;;;10.73;3.50;;;;;;;;;;4975536;28;20057;-84
2023/09/06 08:37:55;;;;;;;5.07;2.63;;;;;;;;;;4975625;28;20055;-84
2023/09/06 08:40:22;;;;;;;5.18;2.55;;;;;;;;;;4992757;28;20054;-85
2023/09/06 08:42:49;;;;;;;3.30;2.28;;;;;;;;;;4992927;28;20050;-84
2023/09/06 08:45:21;;;;;;;5.25;2.95;;;;;;;;;;4993305;28;20124;-84
2023/09/06 08:47:49;;;;;;;4.50;2.30;;;;;;;;;;4979505;28;20050;-85
2023/09/06 08:50:17;;;;;;;4.32;2.33;;;;;;;;;;4996690;28;20322;-85
2023/09/06 08:52:45;;;;;;;3.63;2.60;;;;;;;;;;4996456;28;20105;-85
2023/09/06 08:55:12;;;;;;;5.53;2.70;;;;;;;;;;4996368;28;20510;-85
2023/09/06 08:57:40;;;;;;;7.25;2.75;;;;;;;;;;4978979;28;20101;-86
2023/09/06 09:00:09;;;;;;;3.15;2.15;;;;;;;;;;4996469;28;20047;-85
2023/09/06 09:02:40;;;;;;;3.53;2.30;;;;;;;;;;4996370;28;20104;-85
2023/09/06 09:05:09;;;;;;;3.47;2.58;;;;;;;;;;4979182;28;20085;-84
2023/09/06 09:07:49;;;;;;;7.53;2.40;;;;;;;;;;4981177;28;20055;-89
2023/09/06 09:10:17;;;;;;;3.20;1.85;;;;;;;;;;4979118;28;20046;-86
2023/09/06 09:12:44;;;;;;;2.78;2.15;;;;;;;;;;4996430;28;20050;-87
2023/09/06 09:15:12;;;;;;;2.95;2.28;;;;;;;;;;4979221;28;20047;-89
2023/09/06 09:17:50;;;;;;;4.00;2.28;;;;;;;;;;4980696;28;20057;-86
2023/09/06 09:20:21;;;;;;;2.85;1.92;;;;;;;;;;4979518;28;20554;-86
2023/09/06 09:22:50;;;;;;;6.43;2.60;;;;;;;;;;4996537;28;20046;-86
2023/09/06 09:25:23;;;;;;;4.00;2.15;;;;;;;;;;4979011;28;20133;-86
2023/09/06 09:27:57;;;;;;;2.28;2.10;;;;;;;;;;5000467;28;20054;-86
2023/09/06 09:30:30;;;;;;;4.95;2.40;;;;;;;;;;4998295;28;20259;-85
2023/09/06 09:33:03;;;;;;;3.63;2.35;;;;;;;;;;4980017;28;20573;-87
2023/09/06 09:35:32;;;;;;;3.90;2.47;;;;;;;;;;4979894;28;20054;-85
2023/09/06 09:38:01;;;;;;;3.20;2.05;;;;;;;;;;4978983;28;20101;-88
2023/09/06 09:40:32;;;;;;;5.38;2.08;;;;;;;;;;4978568;28;20423;-86
2023/09/06 09:43:19;;;;;;;2.65;2.45;;;;;;;;;;4981153;28;20082;-86
2023/09/06 09:45:47;;;;;;;3.90;2.30;;;;;;;;;;4978880;28;20137;-86
2023/09/06 09:48:16;;;;;;;2.60;2.03;;;;;;;;;;4979213;28;20046;-88
2023/09/06 09:51:16;;;;;;;4.75;2.28;;;;;;;;;;4997739;28;20061;-86
2023/09/06 09:53:57;;;;;;;3.45;2.30;;;;;;;;;;4979618;28;20086;-84
2023/09/06 09:56:25;;;;;;;3.40;2.33;;;;;;;;;;4978340;28;20065;-86
2023/09/06 09:58:57;;;;;;;4.38;2.80;;;;;;;;;;4995655;28;20050;-87
2023/09/06 10:01:24;;;;;;;3.67;2.10;;;;;;;;;;4978311;28;20510;-87
2023/09/06 10:03:55;;;;;;;2.05;1.95;;;;;;;;;;4978469;28;20057;-87
2023/09/06 10:06:24;;;;;;;2.55;2.20;;;;;;;;;;4995325;28;20514;-88
2023/09/06 10:08:54;;;;;;;4.00;2.30;;;;;;;;;;4978007;28;20202;-87
2023/09/06 10:11:21;;;;;;;5.45;2.40;;;;;;;;;;4978438;28;20463;-86
2023/09/06 10:13:49;;;;;;;3.28;2.30;;;;;;;;;;4977976;28;20050;-88
2023/09/06 10:16:16;;;;;;;3.95;2.13;;;;;;;;;;4995065;28;20188;-88
2023/09/06 10:18:44;;;;;;;3.47;2.50;;;;;;;;;;4995528;28;20061;-89
2023/09/06 10:21:12;;;;;;;4.18;2.70;;;;;;;;;;4978460;28;20047;-87
2023/09/06 10:23:43;;;;;;;2.63;2.35;;;;;;;;;;4977906;28;20448;-88
2023/09/06 10:26:10;;;;;;;4.35;2.33;;;;;;;;;;4995153;28;20442;-90
2023/09/06 10:28:38;;;;;;;2.80;2.55;;;;;;;;;;4977987;28;20162;-90
2023/09/06 10:31:08;;;;;;;3.95;2.70;;;;;;;;;;4995010;28;20097;-88
2023/09/06 10:33:36;;;;;;;4.10;2.60;;;;;;;;;;4995080;28;20051;-89
2023/09/06 10:36:08;;;;;;;5.25;2.35;;;;;;;;;;4979062;28;20502;-88
2023/09/06 10:38:55;;;;;;;13.35;3.00;;;;;;;;;;4996688;28;20054;-88
2023/09/06 10:41:23;;;;;;;4.32;2.67;;;;;;;;;;4982799;28;20088;-87
2023/09/06 10:44:01;;;;;;;5.85;2.53;;;;;;;;;;4994725;28;20372;-87
2023/09/06 10:46:32;;;;;;;5.65;2.85;;;;;;;;;;4996344;28;20054;-88
2023/09/06 10:49:25;;;;;;;8.45;2.83;;;;;;;;;;4978151;28;20061;-88
2023/09/06 10:51:59;;;;;;;5.25;2.72;;;;;;;;;;4978813;28;20058;-89
2023/09/06 10:54:43;;;;;;;6.95;2.65;;;;;;;;;;4977841;28;20146;-90
2023/09/06 10:57:12;;;;;;;4.93;2.67;;;;;;;;;;4977436;28;20432;-88
2023/09/06 10:59:43;;;;;;;2.85;2.50;;;;;;;;;;4977832;28;20379;-90
2023/09/06 11:02:15;;;;;;;5.55;3.08;;;;;;;;;;4977437;28;20114;-88
2023/09/06 11:04:46;;;;;;;4.65;2.75;;;;;;;;;;4994795;28;20042;-86
2023/09/06 11:07:14;;;;;;;3.40;2.72;;;;;;;;;;4977642;28;20124;-88
2023/09/06 11:09:43;;;;;;;5.07;2.28;;;;;;;;;;4977415;28;20189;-89
2023/09/06 11:12:14;;;;;;;4.82;2.35;;;;;;;;;;4977546;28;20062;-89
2023/09/06 11:14:43;;;;;;;5.57;2.40;;;;;;;;;;4994701;28;20566;-87
2023/09/06 11:17:21;;;;;;;2.38;2.20;;;;;;;;;;4977346;28;20074;-89
2023/09/06 11:19:48;;;;;;;5.43;2.30;;;;;;;;;;4977503;28;20102;-90
2023/09/06 11:22:19;;;;;;;4.80;2.50;;;;;;;;;;4977570;28;20482;-89
2023/09/06 11:24:48;;;;;;;2.35;1.98;;;;;;;;;;4994607;28;20085;-89
2023/09/06 11:27:15;;;;;;;3.17;2.47;;;;;;;;;;4977274;28;20054;-91
2023/09/06 11:29:43;;;;;;;2.13;2.03;;;;;;;;;;4977459;28;20109;-92
2023/09/06 11:32:12;;;;;;;2.60;2.40;;;;;;;;;;4977385;28;20054;-91
2023/09/06 11:34:43;;;;;;;4.65;2.30;;;;;;;;;;4977331;28;20077;-89
2023/09/06 11:37:14;;;;;;;5.32;2.28;;;;;;;;;;4977304;28;20050;-89
2023/09/06 11:39:45;;;;;;;2.00;1.90;;;;;;;;;;4977224;28;20158;-88
2023/09/06 11:42:15;;;;;;;6.30;2.45;;;;;;;;;;4994151;28;20438;-89
2023/09/06 11:44:49;;;;;;;5.85;2.00;;;;;;;;;;4977326;28;20047;-87
2023/09/06 11:47:19;;;;;;;1.92;1.83;;;;;;;;;;4977415;28;20056;-87
2023/09/06 11:49:47;;;;;;;3.88;2.15;;;;;;;;;;4993886;28;20057;-88
2023/09/06 11:52:18;;;;;;;3.45;1.98;;;;;;;;;;4977061;28;20546;-90
2023/09/06 11:54:50;;;;;;;3.33;2.25;;;;;;;;;;4977290;28;20042;-88
2023/09/06 11:57:27;;;;;;;3.22;2.03;;;;;;;;;;4977120;28;20120;-87
2023/09/06 11:59:59;;;;;;;4.70;1.80;;;;;;;;;;4977196;28;20056;-88
2023/09/06 12:02:27;;;;;;;1.98;1.80;;;;;;;;;;4976952;28;20054;-87
2023/09/06 12:05:00;;;;;;;5.22;1.90;;;;;;;;;;4994340;28;20077;-88
2023/09/06 12:07:28;;;;;;;2.42;2.17;;;;;;;;;;4994117;28;20074;-88
2023/09/06 12:10:00;;;;;;;3.08;1.98;;;;;;;;;;4979733;28;20046;-88
2023/09/06 12:12:27;;;;;;;2.00;1.90;;;;;;;;;;4984246;28;20415;-89
2023/09/06 12:14:54;;;;;;;2.38;2.17;;;;;;;;;;4998348;28;20050;-90
2023/09/06 12:17:24;;;;;;;3.83;2.00;;;;;;;;;;4994062;28;20094;-88
2023/09/06 12:19:58;;;;;;;2.80;2.25;;;;;;;;;;4978702;28;20050;-89
2023/09/06 12:22:26;;;;;;;2.35;2.05;;;;;;;;;;4980856;28;20082;-89
2023/09/06 12:24:55;;;;;;;2.05;1.95;;;;;;;;;;4980938;28;20050;-89
2023/09/06 12:27:24;;;;;;;2.88;1.80;;;;;;;;;;4997693;28;20061;-90
2023/09/06 12:29:51;;;;;;;2.00;1.90;;;;;;;;;;4980828;28;20105;-93
2023/09/06 12:32:19;;;;;;;2.78;2.15;;;;;;;;;;4980548;28;20056;-87
2023/09/06 12:34:46;;;;;;;2.58;2.15;;;;;;;;;;4997699;28;20050;-88
2023/09/06 12:37:17;;;;;;;5.13;2.10;;;;;;;;;;4980360;28;20148;-89
2023/09/06 12:39:46;;;;;;;2.45;1.70;;;;;;;;;;4980238;28;20506;-88
2023/09/06 12:42:14;;;;;;;5.93;2.42;;;;;;;;;;4997280;28;20050;-88
2023/09/06 12:44:41;;;;;;;5.65;2.22;;;;;;;;;;4980228;28;20050;-92
2023/09/06 12:47:14;;;;;;;2.60;2.05;;;;;;;;;;4997100;28;20129;-90
2023/09/06 12:49:41;;;;;;;5.30;2.60;;;;;;;;;;4980145;28;20046;-89
2023/09/06 12:52:10;;;;;;;5.53;2.10;;;;;;;;;;4978448;28;20057;-89
2023/09/06 12:54:37;;;;;;;3.45;2.03;;;;;;;;;;4980054;28;20487;-90
2023/09/06 12:57:05;;;;;;;2.38;2.17;;;;;;;;;;4979901;28;20108;-91
2023/09/06 12:59:32;;;;;;;7.53;1.98;;;;;;;;;;4980109;28;20046;-88
2023/09/06 13:01:59;;;;;;;4.30;2.10;;;;;;;;;;4997428;28;20109;-89
2023/09/06 13:04:27;;;;;;;3.92;2.10;;;;;;;;;;4997308;28;20056;-90
2023/09/06 13:06:54;;;;;;;2.00;1.80;;;;;;;;;;4980669;28;20057;-89
2023/09/06 13:09:21;;;;;;;11.75;2.50;;;;;;;;;;5001387;28;20265;-88
2023/09/06 13:11:49;;;;;;;6.10;2.35;;;;;;;;;;4985508;28;20637;-90
2023/09/06 13:14:17;;;;;;;8.10;2.40;;;;;;;;;;4997467;28;20082;-88
2023/09/06 13:16:44;;;;;;;2.05;1.88;;;;;;;;;;4979957;28;20085;-91
2023/09/06 13:19:12;;;;;;;4.15;1.70;;;;;;;;;;4998065;28;20058;-92
2023/09/06 13:21:42;;;;;;;4.85;2.00;;;;;;;;;;4996845;28;20586;-91
2023/09/06 13:24:11;;;;;;;2.30;1.88;;;;;;;;;;4980194;28;20137;-90
2023/09/06 13:26:40;;;;;;;2.13;2.03;;;;;;;;;;4980145;28;20089;-88
2023/09/06 13:29:07;;;;;;;8.50;2.22;;;;;;;;;;4980035;28;20050;-90
2023/09/06 13:31:34;;;;;;;2.75;1.25;;;;;;;;;;4979040;28;20070;-91
2023/09/06 13:34:03;;;;;;;9.57;2.00;;;;;;;;;;4996115;28;20050;-88
2023/09/06 13:36:35;;;;;;;3.13;2.38;;;;;;;;;;4997460;28;20414;-90
2023/09/06 13:39:05;;;;;;;3.65;1.67;;;;;;;;;;4979525;28;20054;-91
2023/09/06 13:41:32;;;;;;;4.68;1.60;;;;;;;;;;4979537;28;20050;-90
2023/09/06 13:44:00;;;;;;;3.58;2.25;;;;;;;;;;4979227;28;20186;-92
2023/09/06 13:46:27;;;;;;;1.63;1.52;;;;;;;;;;4979292;28;20104;-91
2023/09/06 13:48:59;;;;;;;2.55;1.80;;;;;;;;;;4996145;28;20100;-90
2023/09/06 13:51:26;;;;;;;1.70;1.60;;;;;;;;;;4979528;28;20057;-89
2023/09/06 13:53:54;;;;;;;1.63;1.50;;;;;;;;;;4996051;28;20061;-90
2023/09/06 13:56:21;;;;;;;2.60;1.50;;;;;;;;;;4996511;28;20042;-90
2023/09/06 13:58:49;;;;;;;1.90;1.73;;;;;;;;;;4979335;28;20054;-89
2023/09/06 14:01:16;;;;;;;2.28;1.65;;;;;;;;;;4979054;28;20047;-91
2023/09/06 14:03:44;;;;;;;1.75;1.60;;;;;;;;;;4996105;28;20506;-90
2023/09/06 14:06:11;;;;;;;2.63;1.70;;;;;;;;;;4979268;28;20057;-90
2023/09/06 14:08:38;;;;;;;1.52;1.45;;;;;;;;;;4996042;28;20109;-89
2023/09/06 14:11:06;;;;;;;1.92;1.83;;;;;;;;;;4979050;28;20049;-90
2023/09/06 14:13:33;;;;;;;4.88;2.10;;;;;;;;;;4978637;28;20092;-91
2023/09/06 14:16:01;;;;;;;2.25;1.50;;;;;;;;;;4996341;28;20129;-90
2023/09/06 14:18:29;;;;;;;3.67;1.58;;;;;;;;;;4978941;28;20054;-92
2023/09/06 14:20:57;;;;;;;3.80;1.73;;;;;;;;;;4992762;28;20043;-89
2023/09/06 14:23:24;;;;;;;5.38;1.45;;;;;;;;;;4959266;28;20117;-91
2023/09/06 14:25:51;;;;;;;1.80;1.70;;;;;;;;;;4976325;28;20058;-89
2023/09/06 14:28:20;;;;;;;3.25;1.58;;;;;;;;;;4959647;28;20070;-89
2023/09/06 14:30:48;;;;;;;4.55;1.70;;;;;;;;;;4979433;28;20046;-90
2023/09/06 14:33:15;;;;;;;2.13;1.67;;;;;;;;;;4976709;28;20074;-89
2023/09/06 14:35:44;;;;;;;2.13;1.85;;;;;;;;;;4978582;28;20054;-89
2023/09/06 14:38:14;;;;;;;1.70;1.60;;;;;;;;;;4978644;28;20046;-90
2023/09/06 14:40:44;;;;;;;3.28;1.88;;;;;;;;;;4978478;28;20053;-89
2023/09/06 14:43:11;;;;;;;1.48;1.38;;;;;;;;;;4994923;28;20537;-89
2023/09/06 14:45:38;;;;;;;1.70;1.60;;;;;;;;;;4978376;28;20053;-90
2023/09/06 14:48:06;;;;;;;1.75;1.60;;;;;;;;;;4978674;28;20047;-89
2023/09/06 14:50:34;;;;;;;4.25;1.92;;;;;;;;;;4978603;28;20058;-90
2023/09/06 14:53:01;;;;;;;2.55;1.70;;;;;;;;;;5002103;28;20057;-88